createdAt,value
2023-05-08T00:01:44.566Z,5.23
2023-05-08T00:04:11.460Z,6.20
2023-05-08T00:06:38.177Z,5.60
2023-05-08T00:09:04.898Z,5.50
2023-05-08T00:11:31.567Z,5.40
2023-05-08T00:13:58.209Z,5.43
2023-05-08T00:16:24.998Z,5.70
2023-05-08T00:18:53.406Z,5.57
2023-05-08T00:21:20.244Z,5.40
2023-05-08T00:23:46.876Z,5.80
2023-05-08T00:26:13.544Z,6.20
2023-05-08T00:28:40.390Z,5.60
2023-05-08T00:31:07.058Z,6.13
2023-05-08T00:33:33.728Z,6.30
2023-05-08T00:36:01.955Z,6.87
2023-05-08T00:38:32.576Z,6.87
2023-05-08T00:40:59.947Z,6.40
2023-05-08T00:43:28.172Z,7.60
2023-05-08T00:45:56.149Z,7.13
2023-05-08T00:48:24.517Z,8.30
2023-05-08T00:50:53.328Z,7.47
2023-05-08T00:53:22.812Z,7.80
2023-05-08T00:55:51.658Z,6.93
2023-05-08T00:58:20.910Z,8.27
2023-05-08T01:00:48.304Z,8.50
2023-05-08T01:03:15.560Z,8.73
2023-05-08T01:05:43.620Z,8.27
2023-05-08T01:08:10.549Z,8.50
2023-05-08T01:10:48.116Z,8.20
2023-05-08T01:13:27.515Z,8.23
2023-05-08T01:16:03.250Z,8.50
2023-05-08T01:18:42.857Z,8.37
2023-05-08T01:21:32.284Z,8.30
2023-05-08T01:24:17.756Z,8.70
2023-05-08T01:27:15.356Z,8.30
2023-05-08T01:30:09.105Z,9.90
2023-05-08T01:32:46.637Z,10.33
2023-05-08T01:35:20.654Z,10.33
2023-05-08T01:37:58.786Z,10.40
2023-05-08T01:40:40.041Z,10.80
2023-05-08T01:43:30.062Z,10.53
2023-05-08T01:45:59.272Z,10.30
2023-05-08T01:48:38.960Z,11.10
2023-05-08T01:51:12.702Z,11.80
2023-05-08T01:53:44.880Z,11.27
2023-05-08T01:56:22.138Z,12.10
2023-05-08T01:58:52.886Z,12.13
2023-05-08T02:01:23.500Z,13.07
2023-05-08T02:03:51.752Z,12.20
2023-05-08T02:06:22.294Z,12.00
2023-05-08T02:08:50.042Z,13.03
2023-05-08T02:11:19.603Z,12.40
2023-05-08T02:13:48.688Z,14.00
2023-05-08T02:16:16.991Z,14.07
2023-05-08T02:18:50.978Z,13.47
2023-05-08T02:21:19.362Z,14.47
2023-05-08T02:23:47.681Z,13.30
2023-05-08T02:26:15.766Z,14.10
2023-05-08T02:28:43.267Z,14.47
2023-05-08T02:31:11.933Z,14.70
2023-05-08T02:33:41.779Z,15.93
2023-05-08T02:36:10.799Z,16.07
2023-05-08T02:38:39.677Z,14.40
2023-05-08T02:41:06.841Z,15.80
2023-05-08T02:43:33.820Z,15.53
2023-05-08T02:46:18.335Z,14.00
2023-05-08T02:49:01.192Z,15.13
2023-05-08T02:51:43.198Z,15.27
2023-05-08T02:54:14.349Z,14.70
2023-05-08T02:57:15.112Z,15.17
2023-05-08T03:00:00.768Z,15.57
2023-05-08T03:02:36.291Z,15.67
2023-05-08T03:05:18.910Z,15.30
2023-05-08T03:07:49.991Z,16.80
2023-05-08T03:10:21.565Z,16.50
2023-05-08T03:12:52.100Z,15.40
2023-05-08T03:15:27.144Z,16.27
2023-05-08T03:17:57.224Z,15.37
2023-05-08T03:20:25.970Z,16.37
2023-05-08T03:22:55.883Z,15.73
2023-05-08T03:25:23.779Z,14.23
2023-05-08T03:27:51.936Z,15.50
2023-05-08T03:30:20.683Z,16.13
2023-05-08T03:32:59.689Z,15.87
2023-05-08T03:35:27.790Z,14.43
2023-05-08T03:37:54.752Z,16.20
2023-05-08T03:40:22.142Z,15.97
2023-05-08T03:42:50.383Z,16.60
2023-05-08T03:45:18.963Z,17.63
2023-05-08T03:47:47.489Z,16.67
2023-05-08T03:50:16.132Z,17.67
2023-05-08T03:52:43.682Z,17.20
2023-05-08T03:55:10.384Z,18.83
2023-05-08T03:58:03.014Z,17.90
2023-05-08T04:00:39.217Z,17.73
2023-05-08T04:03:18.946Z,16.13
2023-05-08T04:06:11.048Z,18.00
2023-05-08T04:08:49.069Z,16.93
2023-05-08T04:11:21.912Z,16.87
2023-05-08T04:13:53.679Z,18.17
2023-05-08T04:16:27.028Z,17.80
2023-05-08T04:19:02.545Z,17.87
2023-05-08T04:21:34.157Z,18.90
2023-05-08T04:24:04.319Z,17.87
2023-05-08T04:26:31.630Z,18.93
2023-05-08T04:29:00.003Z,18.90
2023-05-08T04:31:27.489Z,19.37
2023-05-08T04:33:54.734Z,18.10
2023-05-08T04:36:21.942Z,18.77
2023-05-08T04:38:48.694Z,18.63
2023-05-08T04:41:15.986Z,18.10
2023-05-08T04:43:43.432Z,19.47
2023-05-08T04:46:10.385Z,17.80
2023-05-08T04:48:37.132Z,19.03
2023-05-08T04:51:04.041Z,18.20
2023-05-08T04:53:30.805Z,18.40
2023-05-08T04:55:58.453Z,17.37
2023-05-08T04:58:25.923Z,18.47
2023-05-08T05:00:53.491Z,17.87
2023-05-08T05:03:21.166Z,19.03
2023-05-08T05:05:47.866Z,20.47
2023-05-08T05:08:14.605Z,20.03
2023-05-08T05:10:41.355Z,19.43
2023-05-08T05:13:08.279Z,19.83
2023-05-08T05:15:35.252Z,18.97
2023-05-08T05:18:02.091Z,18.40
2023-05-08T05:20:29.332Z,17.77
2023-05-08T05:22:57.611Z,18.60
2023-05-08T05:25:24.957Z,18.10
2023-05-08T05:27:51.739Z,18.07
2023-05-08T05:30:18.552Z,19.73
2023-05-08T05:32:45.607Z,17.30
2023-05-08T05:35:12.586Z,17.53
2023-05-08T05:37:39.507Z,18.33
2023-05-08T05:40:07.028Z,17.30
2023-05-08T05:42:34.816Z,17.93
2023-05-08T05:45:01.947Z,18.30
2023-05-08T05:47:30.285Z,16.63
2023-05-08T05:49:58.832Z,16.90
2023-05-08T05:52:26.641Z,16.90
2023-05-08T05:54:53.353Z,17.53
2023-05-08T05:57:20.203Z,17.20
2023-05-08T05:59:46.980Z,18.97
2023-05-08T06:02:18.563Z,18.60
2023-05-08T06:04:45.689Z,16.70
2023-05-08T06:07:12.493Z,17.17
2023-05-08T06:09:39.312Z,17.30
2023-05-08T06:12:06.194Z,17.40
2023-05-08T06:14:32.895Z,17.07
2023-05-08T06:17:00.306Z,17.87
2023-05-08T06:19:28.506Z,18.83
2023-05-08T06:21:55.450Z,16.80
2023-05-08T06:24:22.208Z,17.40
2023-05-08T06:26:48.901Z,15.60
2023-05-08T06:29:15.552Z,16.30
2023-05-08T06:31:42.226Z,16.93
2023-05-08T06:34:09.163Z,17.00
2023-05-08T06:36:36.337Z,16.40
2023-05-08T06:39:06.117Z,16.00
2023-05-08T06:41:32.882Z,17.60
2023-05-08T06:43:59.552Z,16.57
2023-05-08T06:46:26.362Z,17.27
2023-05-08T06:48:53.066Z,17.20
2023-05-08T06:51:22.996Z,16.97
2023-05-08T06:53:49.726Z,14.87
2023-05-08T06:56:16.412Z,16.80
2023-05-08T06:58:46.313Z,17.80
2023-05-08T07:01:17.444Z,17.43
2023-05-08T07:03:44.168Z,17.13
2023-05-08T07:06:10.953Z,15.73
2023-05-08T07:08:37.758Z,17.70
2023-05-08T07:11:05.500Z,18.57
2023-05-08T07:13:32.364Z,17.03
2023-05-08T07:15:59.204Z,16.80
2023-05-08T07:18:26.018Z,17.40
2023-05-08T07:20:52.716Z,16.77
2023-05-08T07:23:19.893Z,17.50
2023-05-08T07:25:46.545Z,17.90
2023-05-08T07:28:13.778Z,17.50
2023-05-08T07:30:40.605Z,18.07
2023-05-08T07:33:07.309Z,17.07
2023-05-08T07:35:34.175Z,17.90
2023-05-08T07:38:00.864Z,17.27
2023-05-08T07:40:27.571Z,17.33
2023-05-08T07:42:54.271Z,17.17
2023-05-08T07:45:21.092Z,16.47
2023-05-08T07:47:52.268Z,16.80
2023-05-08T07:50:19.382Z,17.73
2023-05-08T07:52:49.222Z,16.60
2023-05-08T07:55:17.338Z,17.20
2023-05-08T07:57:44.604Z,17.57
2023-05-08T08:00:13.373Z,18.07
2023-05-08T08:02:44.237Z,16.67
2023-05-08T08:05:11.739Z,18.10
2023-05-08T08:07:39.013Z,11.33
2023-05-08T08:10:06.441Z,15.93
2023-05-08T08:12:33.181Z,15.23
2023-05-08T08:14:59.867Z,14.93
2023-05-08T08:17:28.718Z,15.60
2023-05-08T08:19:56.316Z,15.70
2023-05-08T08:22:23.924Z,15.00
2023-05-08T08:24:53.214Z,16.17
2023-05-08T08:27:21.495Z,15.23
2023-05-08T08:29:48.176Z,14.53
2023-05-08T08:32:14.875Z,13.50
2023-05-08T08:34:41.525Z,14.93
2023-05-08T08:37:08.197Z,15.03
2023-05-08T08:39:35.381Z,15.60
2023-05-08T08:42:02.239Z,15.73
2023-05-08T08:44:29.831Z,15.30
2023-05-08T08:46:58.545Z,15.43
2023-05-08T08:49:31.058Z,15.13
2023-05-08T08:52:14.233Z,15.90
2023-05-08T08:54:43.981Z,14.90
2023-05-08T08:57:12.846Z,15.80
2023-05-08T08:59:42.989Z,16.40
2023-05-08T09:02:12.586Z,15.90
2023-05-08T09:04:39.428Z,15.30
2023-05-08T09:07:08.515Z,16.90
2023-05-08T09:09:40.797Z,15.80
2023-05-08T09:12:07.977Z,16.20
2023-05-08T09:14:34.695Z,16.60
2023-05-08T09:17:01.791Z,15.93
2023-05-08T09:19:29.206Z,16.30
2023-05-08T09:22:00.414Z,15.90
2023-05-08T09:24:47.232Z,17.80
2023-05-08T09:27:24.883Z,16.30
2023-05-08T09:30:01.959Z,16.40
2023-05-08T09:32:30.587Z,16.77
2023-05-08T09:34:57.764Z,15.87
2023-05-08T09:37:25.828Z,14.70
2023-05-08T09:39:53.004Z,14.53
2023-05-08T09:42:19.894Z,14.17
2023-05-08T09:44:53.647Z,13.80
2023-05-08T09:47:24.500Z,13.23
2023-05-08T09:50:06.320Z,11.50
2023-05-08T09:52:34.096Z,13.00
2023-05-08T09:55:02.906Z,12.80
2023-05-08T09:57:31.559Z,13.83
2023-05-08T10:00:14.635Z,13.50
2023-05-08T10:02:53.299Z,12.37
2023-05-08T10:05:30.059Z,13.73
2023-05-08T10:07:58.423Z,12.53
2023-05-08T10:10:30.801Z,12.70
2023-05-08T10:12:58.593Z,13.23
2023-05-08T10:15:29.565Z,12.73
2023-05-08T10:18:07.681Z,11.73
2023-05-08T10:20:38.636Z,11.97
2023-05-08T10:23:11.287Z,10.87
2023-05-08T10:25:46.425Z,11.50
2023-05-08T10:28:18.248Z,11.93
2023-05-08T10:30:49.071Z,12.90
2023-05-08T10:33:21.308Z,14.80
2023-05-08T10:35:48.683Z,13.60
2023-05-08T10:38:16.914Z,14.07
2023-05-08T10:40:44.535Z,13.67
2023-05-08T10:43:12.209Z,13.50
2023-05-08T10:45:39.295Z,12.57
2023-05-08T10:48:13.319Z,13.63
2023-05-08T10:50:56.402Z,13.20
2023-05-08T10:53:49.031Z,12.77
2023-05-08T10:56:15.671Z,12.80
2023-05-08T10:58:42.500Z,13.70
2023-05-08T11:01:09.206Z,12.30
2023-05-08T11:03:47.416Z,13.50
2023-05-08T11:06:14.907Z,13.93
2023-05-08T11:08:52.958Z,15.20
2023-05-08T11:11:30.233Z,14.60
2023-05-08T11:14:09.918Z,13.30
2023-05-08T11:16:54.816Z,14.60
2023-05-08T11:19:23.345Z,14.73
2023-05-08T11:22:16.477Z,14.83
2023-05-08T11:24:57.923Z,14.73
2023-05-08T11:27:51.116Z,14.00
2023-05-08T11:30:32.842Z,14.83
2023-05-08T11:33:06.068Z,13.10
2023-05-08T11:35:47.855Z,14.53
2023-05-08T11:38:20.748Z,14.47
2023-05-08T11:40:54.454Z,14.40
2023-05-08T11:43:37.678Z,14.77
2023-05-08T11:46:16.742Z,13.20
2023-05-08T11:48:44.159Z,12.97
2023-05-08T11:51:13.443Z,12.07
2023-05-08T11:53:40.324Z,11.27
2023-05-08T11:56:08.032Z,10.20
2023-05-08T11:58:36.483Z,11.30
2023-05-08T12:01:03.488Z,11.53
2023-05-08T12:03:30.575Z,11.20
2023-05-08T12:05:58.841Z,11.70
2023-05-08T12:08:26.176Z,11.33
2023-05-08T12:10:54.444Z,12.70
2023-05-08T12:13:26.328Z,12.67
2023-05-08T12:16:02.145Z,13.47
2023-05-08T12:18:30.433Z,13.67
2023-05-08T12:20:59.068Z,13.10
2023-05-08T12:23:26.787Z,14.30
2023-05-08T12:25:55.343Z,15.97
2023-05-08T12:28:22.631Z,16.77
2023-05-08T12:30:50.022Z,18.23
2023-05-08T12:33:17.266Z,17.97
2023-05-08T12:35:44.093Z,16.50
2023-05-08T12:38:11.917Z,17.73
2023-05-08T12:40:44.163Z,17.30
2023-05-08T12:43:11.509Z,17.60
2023-05-08T12:45:40.022Z,15.77
2023-05-08T12:48:08.700Z,15.73
2023-05-08T12:50:37.978Z,15.53
2023-05-08T12:53:06.504Z,15.70
2023-05-08T12:55:34.700Z,16.60
2023-05-08T12:58:02.727Z,15.93
2023-05-08T13:00:36.908Z,17.07
2023-05-08T13:03:04.436Z,17.10
2023-05-08T13:05:31.495Z,16.63
2023-05-08T13:08:03.292Z,17.07
2023-05-08T13:10:52.547Z,16.37
2023-05-08T13:13:21.360Z,16.80
2023-05-08T13:15:49.933Z,16.43
2023-05-08T13:18:17.640Z,17.57
2023-05-08T13:20:44.782Z,16.43
2023-05-08T13:23:11.724Z,16.70
2023-05-08T13:25:39.812Z,16.70
2023-05-08T13:28:08.050Z,18.40
2023-05-08T13:30:36.521Z,15.77
2023-05-08T13:33:04.745Z,15.17
2023-05-08T13:35:32.746Z,15.97
2023-05-08T13:37:59.894Z,15.40
2023-05-08T13:40:26.736Z,16.17
2023-05-08T13:42:53.480Z,14.67
2023-05-08T13:45:20.411Z,15.40
2023-05-08T13:47:48.754Z,15.50
2023-05-08T13:50:17.158Z,15.20
2023-05-08T13:52:44.050Z,14.40
2023-05-08T13:55:12.739Z,14.97
2023-05-08T13:57:40.021Z,13.73
2023-05-08T14:00:07.801Z,15.27
2023-05-08T14:02:34.956Z,15.30
2023-05-08T14:05:01.960Z,15.13
2023-05-08T14:07:29.915Z,14.63
2023-05-08T14:09:56.778Z,15.10
2023-05-08T14:12:23.480Z,15.70
2023-05-08T14:14:50.207Z,15.63
2023-05-08T14:17:16.906Z,13.93
2023-05-08T14:19:43.785Z,15.27
2023-05-08T14:22:10.435Z,15.20
2023-05-08T14:24:37.209Z,15.23
2023-05-08T14:27:05.886Z,15.60
2023-05-08T14:29:34.020Z,16.17
2023-05-08T14:32:01.318Z,15.47
2023-05-08T14:34:28.229Z,16.47
2023-05-08T14:36:54.933Z,15.90
2023-05-08T14:39:21.899Z,15.30
2023-05-08T14:42:10.274Z,15.30
2023-05-08T14:44:35.510Z,14.57
2023-05-08T14:47:02.173Z,14.37
2023-05-08T14:52:16.448Z,15.97
2023-05-08T14:54:43.432Z,14.50
2023-05-08T14:57:10.247Z,15.73
2023-05-08T14:59:38.573Z,14.80
2023-05-08T15:02:06.998Z,15.00
2023-05-08T15:04:35.804Z,16.50
2023-05-08T15:07:02.476Z,14.10
2023-05-08T15:09:29.166Z,16.17
2023-05-08T15:11:56.043Z,15.50
2023-05-08T15:14:22.743Z,14.53
2023-05-08T15:16:49.539Z,14.67
2023-05-08T15:19:17.299Z,13.30
2023-05-08T15:21:43.954Z,12.57
2023-05-08T15:24:11.354Z,12.37
2023-05-08T15:26:38.020Z,12.63
2023-05-08T15:29:04.679Z,10.43
2023-05-08T15:31:31.457Z,9.50
2023-05-08T15:33:58.115Z,7.77
2023-05-08T15:36:25.381Z,7.60
2023-05-08T15:38:53.943Z,6.37
2023-05-08T15:41:21.706Z,6.23
2023-05-08T15:43:48.341Z,5.50
2023-05-08T15:46:15.034Z,6.77
2023-05-08T15:48:41.813Z,7.00
2023-05-08T15:51:08.447Z,6.70
2023-05-08T15:53:35.449Z,7.27
2023-05-08T15:58:54.879Z,6.03
2023-05-08T16:01:21.675Z,6.33
2023-05-08T16:03:49.125Z,6.30
2023-05-08T16:06:16.526Z,6.43
2023-05-08T16:08:44.078Z,6.10
2023-05-08T16:11:10.887Z,6.33
2023-05-08T16:13:37.650Z,6.50
2023-05-08T16:16:06.109Z,5.70
2023-05-08T16:18:32.895Z,6.13
2023-05-08T16:20:59.715Z,6.10
2023-05-08T16:23:26.842Z,6.63
2023-05-08T16:25:53.591Z,6.20
2023-05-08T16:28:20.784Z,6.17
2023-05-08T16:30:47.553Z,6.53
2023-05-08T16:33:14.294Z,6.90
2023-05-08T16:35:41.140Z,6.60
2023-05-08T16:38:08.092Z,6.37
2023-05-08T16:40:34.984Z,6.10
2023-05-08T16:43:01.885Z,5.77
2023-05-08T16:45:28.733Z,6.17
2023-05-08T16:47:55.685Z,6.63
2023-05-08T16:50:22.499Z,6.13
2023-05-08T16:52:49.530Z,6.20
2023-05-08T16:55:16.521Z,5.43
2023-05-08T16:57:43.620Z,6.83
2023-05-08T17:00:11.102Z,6.13
2023-05-08T17:02:39.017Z,6.50
2023-05-08T17:05:06.421Z,6.60
2023-05-08T17:07:33.237Z,6.37
2023-05-08T17:10:00.014Z,6.00
2023-05-08T17:12:26.813Z,6.33
2023-05-08T17:14:53.616Z,7.30
2023-05-08T17:17:21.484Z,7.43
2023-05-08T17:19:48.290Z,7.40
2023-05-08T17:22:15.435Z,7.53
2023-05-08T17:24:42.304Z,7.00
2023-05-08T17:27:09.164Z,6.80
2023-05-08T17:29:36.021Z,6.63
2023-05-08T17:32:03.015Z,7.63
2023-05-08T17:34:30.258Z,7.50
2023-05-08T17:36:57.330Z,7.50
2023-05-08T17:39:24.299Z,8.20
2023-05-08T17:41:51.708Z,8.00
2023-05-08T17:44:18.873Z,7.87
2023-05-08T17:46:46.252Z,7.60
2023-05-08T17:49:14.538Z,8.03
2023-05-08T17:51:42.005Z,7.93
2023-05-08T17:54:09.187Z,8.27
2023-05-08T17:56:36.123Z,8.97
2023-05-08T17:59:02.939Z,8.70
2023-05-08T18:01:29.967Z,8.30
2023-05-08T18:03:56.776Z,7.70
2023-05-08T18:06:23.601Z,7.60
2023-05-08T18:08:50.393Z,8.10
2023-05-08T18:11:25.074Z,7.90
2023-05-08T18:13:54.978Z,7.80
2023-05-08T18:16:22.713Z,7.10
2023-05-08T18:18:50.005Z,7.70
2023-05-08T18:21:16.948Z,8.73
2023-05-08T18:23:44.208Z,8.27
2023-05-08T18:26:15.057Z,9.17
2023-05-08T18:28:42.252Z,7.93
2023-05-08T18:31:09.067Z,8.20
2023-05-08T18:33:37.084Z,7.57
2023-05-08T18:36:05.494Z,8.40
2023-05-08T18:38:33.093Z,8.37
2023-05-08T18:41:02.814Z,7.87
2023-05-08T18:43:29.816Z,8.10
2023-05-08T18:45:57.999Z,7.50
2023-05-08T18:48:26.336Z,7.67
2023-05-08T18:50:53.082Z,7.90
2023-05-08T18:53:19.895Z,8.83
2023-05-08T18:55:46.663Z,7.90
2023-05-08T18:58:13.357Z,8.47
2023-05-08T19:00:40.259Z,7.60
2023-05-08T19:03:07.078Z,8.30
2023-05-08T19:05:33.829Z,7.60
2023-05-08T19:08:00.606Z,8.60
2023-05-08T19:10:27.405Z,8.60
2023-05-08T19:12:54.148Z,9.40
2023-05-08T19:15:20.964Z,9.00
2023-05-08T19:17:48.468Z,8.33
2023-05-08T19:20:15.708Z,9.33
2023-05-08T19:22:42.887Z,9.63
2023-05-08T19:25:09.977Z,9.77
2023-05-08T19:27:36.790Z,9.67
2023-05-08T19:30:04.119Z,9.20
2023-05-08T19:32:30.849Z,9.70
2023-05-08T19:34:57.622Z,9.87
2023-05-08T19:37:24.936Z,9.73
2023-05-08T19:39:51.768Z,9.50
2023-05-08T19:42:18.548Z,9.17
2023-05-08T19:44:45.360Z,10.30
2023-05-08T19:47:13.250Z,8.80
2023-05-08T19:49:40.094Z,10.40
2023-05-08T19:52:06.967Z,9.43
2023-05-08T19:54:33.907Z,11.23
2023-05-08T19:57:00.969Z,10.07
2023-05-08T19:59:28.025Z,9.53
2023-05-08T20:01:54.862Z,10.70
2023-05-08T20:04:21.784Z,11.30
2023-05-08T20:06:48.603Z,11.03
2023-05-08T20:09:15.415Z,10.73
2023-05-08T20:11:42.105Z,10.70
2023-05-08T20:14:08.879Z,11.67
2023-05-08T20:16:35.961Z,11.33
2023-05-08T20:19:02.972Z,13.07
2023-05-08T20:21:32.434Z,12.20
2023-05-08T20:23:59.844Z,12.13
2023-05-08T20:26:30.357Z,12.63
2023-05-08T20:28:57.347Z,12.97
2023-05-08T20:31:27.430Z,14.30
2023-05-08T20:33:54.589Z,14.67
2023-05-08T20:36:21.346Z,12.10
2023-05-08T20:38:48.047Z,14.03
2023-05-08T20:41:15.171Z,14.17
2023-05-08T20:43:41.902Z,14.67
2023-05-08T20:46:08.779Z,15.27
2023-05-08T20:48:36.654Z,16.07
2023-05-08T20:51:03.603Z,14.93
2023-05-08T20:53:30.499Z,15.17
2023-05-08T20:56:04.872Z,15.57
2023-05-08T20:58:31.900Z,15.50
2023-05-08T21:00:58.720Z,15.60
2023-05-08T21:03:25.583Z,13.97
2023-05-08T21:05:52.348Z,15.83
2023-05-08T21:08:26.468Z,16.30
2023-05-08T21:10:53.271Z,16.00
2023-05-08T21:13:20.168Z,16.10
2023-05-08T21:15:52.742Z,16.10
2023-05-08T21:18:19.520Z,15.97
2023-05-08T21:20:49.974Z,15.87
2023-05-08T21:23:17.769Z,17.27
2023-05-08T21:25:49.138Z,17.77
2023-05-08T21:28:16.418Z,17.60
2023-05-08T21:30:44.223Z,17.03
2023-05-08T21:33:13.496Z,18.23
2023-05-08T21:36:48.136Z,19.50
2023-05-08T22:06:04.727Z,19.00
2023-05-08T22:10:02.854Z,20.00
2023-05-08T22:12:29.554Z,20.17
2023-05-08T22:14:56.159Z,19.57
2023-05-08T22:17:22.847Z,19.67
2023-05-08T22:19:49.476Z,20.30
2023-05-08T22:22:16.289Z,20.30
2023-05-08T22:24:42.859Z,20.70
2023-05-08T22:27:09.460Z,20.53
2023-05-08T22:29:36.110Z,21.00
2023-05-08T22:32:03.321Z,20.17
2023-05-08T22:34:29.975Z,21.20
2023-05-08T22:36:56.544Z,21.20
2023-05-08T22:39:23.129Z,20.67
2023-05-08T22:41:50.046Z,22.20
2023-05-08T22:44:16.802Z,19.90
2023-05-08T22:46:43.686Z,21.37
2023-05-08T22:49:10.433Z,22.03
2023-05-08T22:51:37.119Z,21.07
2023-05-08T22:54:03.850Z,23.40
2023-05-08T22:56:30.588Z,23.10
2023-05-08T22:58:57.242Z,21.63
2023-05-08T23:01:23.876Z,23.13
2023-05-08T23:03:52.225Z,22.63
2023-05-08T23:06:18.895Z,22.77
2023-05-08T23:08:45.962Z,22.53
2023-05-08T23:11:12.627Z,21.90
2023-05-08T23:13:39.213Z,22.77
2023-05-08T23:16:06.554Z,22.70
2023-05-08T23:18:34.058Z,21.17
2023-05-08T23:21:07.668Z,22.73
2023-05-08T23:23:34.998Z,23.73
2023-05-08T23:26:04.756Z,23.20
2023-05-08T23:28:33.322Z,24.00
2023-05-08T23:31:00.463Z,23.17
2023-05-08T23:33:29.421Z,23.30
2023-05-08T23:35:57.539Z,23.70
2023-05-08T23:38:24.306Z,23.57
2023-05-08T23:40:51.496Z,24.10
2023-05-08T23:43:18.320Z,23.07
2023-05-08T23:45:45.058Z,24.90
2023-05-08T23:48:11.674Z,23.27
2023-05-08T23:50:38.287Z,24.27
2023-05-08T23:53:04.917Z,24.47
2023-05-08T23:55:31.533Z,23.57
2023-05-08T23:57:58.344Z,24.40
